Menalon — SXCH — position and weather

sailwx.info

Track history (hours):
 
Tides and Currents Weather Stations Pressure Air Temp Water Temp Dewpoint Dewpoint Depression Visibility Wind Speed Wind Dir Waves Ship Positions

Menalon

Last reported at 2014-Jul-25 17:33 UTC. Time now 2014-Jul-25 18:30 UTC.
Position N 37°55' E 023°05'.

Length 83 m; draft 3.5 m.

Type: Ship (hazmat cat C). MMSI: 239741000.

Date/timePositionNaut miles runAvg speedWind from/ knotsBaromVisibWave heightAir tempDewpointWater temp
2014-Jul-25 17:33N 37°55' E 023°05'0 0.0
2014-Jul-25 16:33N 37°55' E 023°05'0 0.0
2014-Jul-25 15:33N 37°55' E 023°05'13 0.5
2014-Jul-24 11:34N 37°53' E 023°22'10 9.6
2014-Jul-24 10:30N 37°56' E 023°34'1 1.1
2014-Jul-24 09:34N 37°57' E 023°34'0 0.0
2014-Jul-24 08:34N 37°57' E 023°34'0 0.0
2014-Jul-24 07:33N 37°57' E 023°34'0 0.0
2014-Jul-24 06:33N 37°57' E 023°34'0 0.0
2014-Jul-24 05:33N 37°57' E 023°34'0 0.0
2014-Jul-24 04:33N 37°57' E 023°34'0 0.0
2014-Jul-24 03:34N 37°57' E 023°34'0 0.0
2014-Jul-24 02:33N 37°57' E 023°34'0 0.0
2014-Jul-24 01:34N 37°57' E 023°34'0 0.0
2014-Jul-24 00:33N 37°57' E 023°34'0 0.0
2014-Jul-23 23:33N 37°57' E 023°34'0 0.0
2014-Jul-23 22:33N 37°57' E 023°34'0 0.0
2014-Jul-23 21:33N 37°57' E 023°34'0 0.0
2014-Jul-23 20:33N 37°57' E 023°34'0 0.0
2014-Jul-23 19:33N 37°57' E 023°34'0 0.0
2014-Jul-23 18:34N 37°57' E 023°34'0 0.0
2014-Jul-23 17:34N 37°57' E 023°34'0 0.0
2014-Jul-23 16:33N 37°57' E 023°34'0 0.0
2014-Jul-23 15:34N 37°57' E 023°34'0 0.0
2014-Jul-23 14:34N 37°57' E 023°34'0 0.0
2014-Jul-23 13:34N 37°57' E 023°34'0 0.0
2014-Jul-23 12:34N 37°57' E 023°34'0 0.0
2014-Jul-23 11:33N 37°57' E 023°34'1 0.5
2014-Jul-23 09:33N 37°56' E 023°35'3 3.3
2014-Jul-23 08:33N 37°53' E 023°33'0 0.1
2014-Jul-23 07:33N 37°53' E 023°33'0 0.1
2014-Jul-23 06:34N 37°53' E 023°33'0 0.3
2014-Jul-23 05:34N 37°53' E 023°33'5 0.9
2014-Jul-23 00:33N 37°57' E 023°35'0 0.0
2014-Jul-22 23:34N 37°57' E 023°35'0 0.0
2014-Jul-22 22:33N 37°57' E 023°35'0 0.0
2014-Jul-22 21:33N 37°57' E 023°35'0 0.0
2014-Jul-22 20:33N 37°57' E 023°35'0 0.1
2014-Jul-22 19:33N 37°57' E 023°35'0 0.0
2014-Jul-22 18:33N 37°57' E 023°35'0 0.0
2014-Jul-22 17:34N 37°57' E 023°35'0 0.0
2014-Jul-22 16:33N 37°57' E 023°35'0 0.0
2014-Jul-22 15:34N 37°57' E 023°35'0 0.0
2014-Jul-22 14:33N 37°57' E 023°35'0 0.0
2014-Jul-22 13:33N 37°57' E 023°35'0 0.0
2014-Jul-22 12:33N 37°57' E 023°35'0 0.0
2014-Jul-22 11:34N 37°57' E 023°35'0 0.0
2014-Jul-22 10:33N 37°57' E 023°35'0 0.0
2014-Jul-22 09:34N 37°57' E 023°35'0 0.0
2014-Jul-22 08:34N 37°57' E 023°35'0 0.0
2014-Jul-22 07:33N 37°57' E 023°35'0 0.1
2014-Jul-22 06:33N 37°57' E 023°35'0 0.0
2014-Jul-22 05:33N 37°57' E 023°35'1 0.8
2014-Jul-22 04:34N 37°57' E 023°36'0 0.0
2014-Jul-22 03:33N 37°57' E 023°36'0 0.0
2014-Jul-22 02:34N 37°57' E 023°36'0 0.0
2014-Jul-22 01:34N 37°57' E 023°36'0 0.0
2014-Jul-22 00:34N 37°57' E 023°36'0 0.0
2014-Jul-21 23:33N 37°57' E 023°36'0 0.0
2014-Jul-21 22:34N 37°57' E 023°36'0 0.0
2014-Jul-21 21:33N 37°57' E 023°36'1 0.8
2014-Jul-21 20:33N 37°57' E 023°35'0 0.3
2014-Jul-21 20:18N 37°57' E 023°35'0 0.0
2014-Jul-21 19:33N 37°57' E 023°35'0 0.1
2014-Jul-21 18:33N 37°57' E 023°35'6 5.9
2014-Jul-21 17:33N 37°52' E 023°32'0 0.0
2014-Jul-21 16:34N 37°52' E 023°32'1 0.7
2014-Jul-21 15:33N 37°52' E 023°33'0 0.0
2014-Jul-21 14:34N 37°52' E 023°33'0 0.4
2014-Jul-21 13:33N 37°53' E 023°33'3 3.0
2014-Jul-21 12:33N 37°56' E 023°34'0 0.0
2014-Jul-21 11:33N 37°56' E 023°34'0 0.0
2014-Jul-21 10:34N 37°56' E 023°34'0 0.0
2014-Jul-21 09:33N 37°56' E 023°34'0 0.1
2014-Jul-21 08:33N 37°55' E 023°34'0 0.5
2014-Jul-21 07:33N 37°55' E 023°34'2 2.4
2014-Jul-21 06:33N 37°57' E 023°35'23 0.6
2014-Jul-19 13:31N 37°55' E 023°05'0 0.0
2014-Jul-19 12:33N 37°55' E 023°05'0 0.0
2014-Jul-19 11:33N 37°55' E 023°05'0 0.0
2014-Jul-19 10:28N 37°55' E 023°05'0 0.0
2014-Jul-19 09:31N 37°55' E 023°05'0 0.0
2014-Jul-19 08:31N 37°55' E 023°05'13 0.7
2014-Jul-18 12:33N 37°53' E 023°22'8 8.5
2014-Jul-18 11:33N 37°55' E 023°32'3 3.3
2014-Jul-18 10:34N 37°57' E 023°34'0 0.0
2014-Jul-18 09:33N 37°57' E 023°34'0 0.0
2014-Jul-18 08:33N 37°57' E 023°34'0 0.0
2014-Jul-18 07:34N 37°57' E 023°34'0 0.0
2014-Jul-18 06:30N 37°57' E 023°34'0 0.0
2014-Jul-18 05:33N 37°57' E 023°34'0 0.0
2014-Jul-18 04:32N 37°57' E 023°34'0 0.1
2014-Jul-18 03:31N 37°57' E 023°34'0 0.0
2014-Jul-18 02:33N 37°57' E 023°34'0 0.0
2014-Jul-18 01:33N 37°57' E 023°34'0 0.0
2014-Jul-18 00:33N 37°57' E 023°34'0 0.0
2014-Jul-17 23:33N 37°57' E 023°34'0 0.0
2014-Jul-17 22:33N 37°57' E 023°34'0 0.0
2014-Jul-17 21:34N 37°57' E 023°34'0 0.0
2014-Jul-17 20:33N 37°57' E 023°34'0 0.0
2014-Jul-17 19:34N 37°57' E 023°34'0 0.0
2014-Jul-17 18:34N 37°57' E 023°34'0 0.0
2014-Jul-17 17:34N 37°57' E 023°34'0 0.0
2014-Jul-17 16:34N 37°57' E 023°34'0 0.0
2014-Jul-17 15:33N 37°57' E 023°34'0 0.0
2014-Jul-17 14:34N 37°57' E 023°34'0 0.0
2014-Jul-17 13:34N 37°57' E 023°34'0 0.0
2014-Jul-17 12:33N 37°57' E 023°34'0 0.0
2014-Jul-17 11:33N 37°57' E 023°34'0 0.0
2014-Jul-17 10:34N 37°57' E 023°34'0 0.1
2014-Jul-17 09:33N 37°57' E 023°34'0 0.0
2014-Jul-17 08:34N 37°57' E 023°34'0 0.0
2014-Jul-17 07:34N 37°57' E 023°34'0 0.0
2014-Jul-17 06:34N 37°57' E 023°34'0 0.0
2014-Jul-17 05:34N 37°57' E 023°34'0 0.0
2014-Jul-17 04:33N 37°57' E 023°34'0 0.0
2014-Jul-17 03:34N 37°57' E 023°34'0 0.0
2014-Jul-17 02:33N 37°57' E 023°34'0 0.0
2014-Jul-17 01:34N 37°57' E 023°34'0 0.0
2014-Jul-17 00:33N 37°57' E 023°34'0 0.0
2014-Jul-16 23:34N 37°57' E 023°34'0 0.0
2014-Jul-16 22:33N 37°57' E 023°34'0 0.1
2014-Jul-16 21:33N 37°57' E 023°34'0 0.0
2014-Jul-16 20:33N 37°57' E 023°34'0 0.0
2014-Jul-16 19:33N 37°57' E 023°34'0 0.0
2014-Jul-16 18:34N 37°57' E 023°34'0 0.0
2014-Jul-16 17:33N 37°57' E 023°34'0 0.0
2014-Jul-16 16:33N 37°57' E 023°34'0 0.0
2014-Jul-16 15:33N 37°57' E 023°34'0 0.0
2014-Jul-16 14:33N 37°57' E 023°34'0 0.0
2014-Jul-16 13:33N 37°57' E 023°34'0 0.1
2014-Jul-16 12:33N 37°57' E 023°34'0 0.0
2014-Jul-16 11:34N 37°57' E 023°34'0 0.0
2014-Jul-16 10:33N 37°57' E 023°34'2 2.3
2014-Jul-16 09:34N 37°55' E 023°34'4 3.5
2014-Jul-16 08:33N 37°52' E 023°31'0 0.1
2014-Jul-16 07:34N 37°52' E 023°31'0 0.0
2014-Jul-16 06:34N 37°52' E 023°31'5 5.3
2014-Jul-16 05:33N 37°57' E 023°35'0 0.3
2014-Jul-16 04:33N 37°57' E 023°34'0 0.0
2014-Jul-16 03:34N 37°57' E 023°34'0 0.0
2014-Jul-16 02:34N 37°57' E 023°34'0 0.0
2014-Jul-16 01:33N 37°57' E 023°34'0 0.0
2014-Jul-16 00:33N 37°57' E 023°34'0 0.0
2014-Jul-15 23:33N 37°57' E 023°34'0 0.0
2014-Jul-15 22:34N 37°57' E 023°34'0 0.0
2014-Jul-15 21:34N 37°57' E 023°34'0 0.0
2014-Jul-15 20:34N 37°57' E 023°34'0 0.0
2014-Jul-15 19:34N 37°57' E 023°34'0 0.0
2014-Jul-15 18:34N 37°57' E 023°34'4 3.8
2014-Jul-15 17:34N 38°01' E 023°34'  
Track history (hours):
 
Tides and Currents Weather Stations Pressure Air Temp Water Temp Dewpoint Dewpoint Depression Visibility Wind Speed Wind Dir Waves Ship Positions

Menalon

Last reported at 2014-Jul-25 17:33 UTC. Time now 2014-Jul-25 18:30 UTC.
Position N 37°55' E 023°05'.

Length 83 m; draft 3.5 m.

Type: Ship (hazmat cat C). MMSI: 239741000.

Date/timePositionNaut miles runAvg speedWind from/ knotsBaromVisibWave heightAir tempDewpointWater temp
2014-Jul-25 17:33N 37°55' E 023°05'0 0.0
2014-Jul-25 16:33N 37°55' E 023°05'0 0.0
2014-Jul-25 15:33N 37°55' E 023°05'13 0.5
2014-Jul-24 11:34N 37°53' E 023°22'10 9.6
2014-Jul-24 10:30N 37°56' E 023°34'1 1.1
2014-Jul-24 09:34N 37°57' E 023°34'0 0.0
2014-Jul-24 08:34N 37°57' E 023°34'0 0.0
2014-Jul-24 07:33N 37°57' E 023°34'0 0.0
2014-Jul-24 06:33N 37°57' E 023°34'0 0.0
2014-Jul-24 05:33N 37°57' E 023°34'0 0.0
2014-Jul-24 04:33N 37°57' E 023°34'0 0.0
2014-Jul-24 03:34N 37°57' E 023°34'0 0.0
2014-Jul-24 02:33N 37°57' E 023°34'0 0.0
2014-Jul-24 01:34N 37°57' E 023°34'0 0.0
2014-Jul-24 00:33N 37°57' E 023°34'0 0.0
2014-Jul-23 23:33N 37°57' E 023°34'0 0.0
2014-Jul-23 22:33N 37°57' E 023°34'0 0.0
2014-Jul-23 21:33N 37°57' E 023°34'0 0.0
2014-Jul-23 20:33N 37°57' E 023°34'0 0.0
2014-Jul-23 19:33N 37°57' E 023°34'0 0.0
2014-Jul-23 18:34N 37°57' E 023°34'0 0.0
2014-Jul-23 17:34N 37°57' E 023°34'0 0.0
2014-Jul-23 16:33N 37°57' E 023°34'0 0.0
2014-Jul-23 15:34N 37°57' E 023°34'0 0.0
2014-Jul-23 14:34N 37°57' E 023°34'0 0.0
2014-Jul-23 13:34N 37°57' E 023°34'0 0.0
2014-Jul-23 12:34N 37°57' E 023°34'0 0.0
2014-Jul-23 11:33N 37°57' E 023°34'1 0.5
2014-Jul-23 09:33N 37°56' E 023°35'3 3.3
2014-Jul-23 08:33N 37°53' E 023°33'0 0.1
2014-Jul-23 07:33N 37°53' E 023°33'0 0.1
2014-Jul-23 06:34N 37°53' E 023°33'0 0.3
2014-Jul-23 05:34N 37°53' E 023°33'5 0.9
2014-Jul-23 00:33N 37°57' E 023°35'0 0.0
2014-Jul-22 23:34N 37°57' E 023°35'0 0.0
2014-Jul-22 22:33N 37°57' E 023°35'0 0.0
2014-Jul-22 21:33N 37°57' E 023°35'0 0.0
2014-Jul-22 20:33N 37°57' E 023°35'0 0.1
2014-Jul-22 19:33N 37°57' E 023°35'0 0.0
2014-Jul-22 18:33N 37°57' E 023°35'0 0.0
2014-Jul-22 17:34N 37°57' E 023°35'0 0.0
2014-Jul-22 16:33N 37°57' E 023°35'0 0.0
2014-Jul-22 15:34N 37°57' E 023°35'0 0.0
2014-Jul-22 14:33N 37°57' E 023°35'0 0.0
2014-Jul-22 13:33N 37°57' E 023°35'0 0.0
2014-Jul-22 12:33N 37°57' E 023°35'0 0.0
2014-Jul-22 11:34N 37°57' E 023°35'0 0.0
2014-Jul-22 10:33N 37°57' E 023°35'0 0.0
2014-Jul-22 09:34N 37°57' E 023°35'0 0.0
2014-Jul-22 08:34N 37°57' E 023°35'0 0.0
2014-Jul-22 07:33N 37°57' E 023°35'0 0.1
2014-Jul-22 06:33N 37°57' E 023°35'0 0.0
2014-Jul-22 05:33N 37°57' E 023°35'1 0.8
2014-Jul-22 04:34N 37°57' E 023°36'0 0.0
2014-Jul-22 03:33N 37°57' E 023°36'0 0.0
2014-Jul-22 02:34N 37°57' E 023°36'0 0.0
2014-Jul-22 01:34N 37°57' E 023°36'0 0.0
2014-Jul-22 00:34N 37°57' E 023°36'0 0.0
2014-Jul-21 23:33N 37°57' E 023°36'0 0.0
2014-Jul-21 22:34N 37°57' E 023°36'0 0.0
2014-Jul-21 21:33N 37°57' E 023°36'1 0.8
2014-Jul-21 20:33N 37°57' E 023°35'0 0.3
2014-Jul-21 20:18N 37°57' E 023°35'0 0.0
2014-Jul-21 19:33N 37°57' E 023°35'0 0.1
2014-Jul-21 18:33N 37°57' E 023°35'6 5.9
2014-Jul-21 17:33N 37°52' E 023°32'0 0.0
2014-Jul-21 16:34N 37°52' E 023°32'1 0.7
2014-Jul-21 15:33N 37°52' E 023°33'0 0.0
2014-Jul-21 14:34N 37°52' E 023°33'0 0.4
2014-Jul-21 13:33N 37°53' E 023°33'3 3.0
2014-Jul-21 12:33N 37°56' E 023°34'0 0.0
2014-Jul-21 11:33N 37°56' E 023°34'0 0.0
2014-Jul-21 10:34N 37°56' E 023°34'0 0.0
2014-Jul-21 09:33N 37°56' E 023°34'0 0.1
2014-Jul-21 08:33N 37°55' E 023°34'0 0.5
2014-Jul-21 07:33N 37°55' E 023°34'2 2.4
2014-Jul-21 06:33N 37°57' E 023°35'23 0.6
2014-Jul-19 13:31N 37°55' E 023°05'0 0.0
2014-Jul-19 12:33N 37°55' E 023°05'0 0.0
2014-Jul-19 11:33N 37°55' E 023°05'0 0.0
2014-Jul-19 10:28N 37°55' E 023°05'0 0.0
2014-Jul-19 09:31N 37°55' E 023°05'0 0.0
2014-Jul-19 08:31N 37°55' E 023°05'13 0.7
2014-Jul-18 12:33N 37°53' E 023°22'8 8.5
2014-Jul-18 11:33N 37°55' E 023°32'3 3.3
2014-Jul-18 10:34N 37°57' E 023°34'0 0.0
2014-Jul-18 09:33N 37°57' E 023°34'0 0.0
2014-Jul-18 08:33N 37°57' E 023°34'0 0.0
2014-Jul-18 07:34N 37°57' E 023°34'0 0.0
2014-Jul-18 06:30N 37°57' E 023°34'0 0.0
2014-Jul-18 05:33N 37°57' E 023°34'0 0.0
2014-Jul-18 04:32N 37°57' E 023°34'0 0.1
2014-Jul-18 03:31N 37°57' E 023°34'0 0.0
2014-Jul-18 02:33N 37°57' E 023°34'0 0.0
2014-Jul-18 01:33N 37°57' E 023°34'0 0.0
2014-Jul-18 00:33N 37°57' E 023°34'0 0.0
2014-Jul-17 23:33N 37°57' E 023°34'0 0.0
2014-Jul-17 22:33N 37°57' E 023°34'0 0.0
2014-Jul-17 21:34N 37°57' E 023°34'0 0.0
2014-Jul-17 20:33N 37°57' E 023°34'0 0.0
2014-Jul-17 19:34N 37°57' E 023°34'0 0.0
2014-Jul-17 18:34N 37°57' E 023°34'0 0.0
2014-Jul-17 17:34N 37°57' E 023°34'0 0.0
2014-Jul-17 16:34N 37°57' E 023°34'0 0.0
2014-Jul-17 15:33N 37°57' E 023°34'0 0.0
2014-Jul-17 14:34N 37°57' E 023°34'0 0.0
2014-Jul-17 13:34N 37°57' E 023°34'0 0.0
2014-Jul-17 12:33N 37°57' E 023°34'0 0.0
2014-Jul-17 11:33N 37°57' E 023°34'0 0.0
2014-Jul-17 10:34N 37°57' E 023°34'0 0.1
2014-Jul-17 09:33N 37°57' E 023°34'0 0.0
2014-Jul-17 08:34N 37°57' E 023°34'0 0.0
2014-Jul-17 07:34N 37°57' E 023°34'0 0.0
2014-Jul-17 06:34N 37°57' E 023°34'0 0.0
2014-Jul-17 05:34N 37°57' E 023°34'0 0.0
2014-Jul-17 04:33N 37°57' E 023°34'0 0.0
2014-Jul-17 03:34N 37°57' E 023°34'0 0.0
2014-Jul-17 02:33N 37°57' E 023°34'0 0.0
2014-Jul-17 01:34N 37°57' E 023°34'0 0.0
2014-Jul-17 00:33N 37°57' E 023°34'0 0.0
2014-Jul-16 23:34N 37°57' E 023°34'0 0.0
2014-Jul-16 22:33N 37°57' E 023°34'0 0.1
2014-Jul-16 21:33N 37°57' E 023°34'0 0.0
2014-Jul-16 20:33N 37°57' E 023°34'0 0.0
2014-Jul-16 19:33N 37°57' E 023°34'0 0.0
2014-Jul-16 18:34N 37°57' E 023°34'0 0.0
2014-Jul-16 17:33N 37°57' E 023°34'0 0.0
2014-Jul-16 16:33N 37°57' E 023°34'0 0.0
2014-Jul-16 15:33N 37°57' E 023°34'0 0.0
2014-Jul-16 14:33N 37°57' E 023°34'0 0.0
2014-Jul-16 13:33N 37°57' E 023°34'0 0.1
2014-Jul-16 12:33N 37°57' E 023°34'0 0.0
2014-Jul-16 11:34N 37°57' E 023°34'0 0.0
2014-Jul-16 10:33N 37°57' E 023°34'2 2.3
2014-Jul-16 09:34N 37°55' E 023°34'4 3.5
2014-Jul-16 08:33N 37°52' E 023°31'0 0.1
2014-Jul-16 07:34N 37°52' E 023°31'0 0.0
2014-Jul-16 06:34N 37°52' E 023°31'5 5.3
2014-Jul-16 05:33N 37°57' E 023°35'0 0.3
2014-Jul-16 04:33N 37°57' E 023°34'0 0.0
2014-Jul-16 03:34N 37°57' E 023°34'0 0.0
2014-Jul-16 02:34N 37°57' E 023°34'0 0.0
2014-Jul-16 01:33N 37°57' E 023°34'0 0.0
2014-Jul-16 00:33N 37°57' E 023°34'0 0.0
2014-Jul-15 23:33N 37°57' E 023°34'0 0.0
2014-Jul-15 22:34N 37°57' E 023°34'0 0.0
2014-Jul-15 21:34N 37°57' E 023°34'0 0.0
2014-Jul-15 20:34N 37°57' E 023°34'0 0.0
2014-Jul-15 19:34N 37°57' E 023°34'0 0.0
2014-Jul-15 18:34N 37°57' E 023°34'4 3.8
2014-Jul-15 17:34N 38°01' E 023°34'  

Dump ship's entire track history